RYR45AM EGCC-EGPH
Flight info
| Callsign | RYR45AM |
|---|---|
| Flight time | 0h 37m |
| Altitude | 24000 |
| Route | POL N601 INPIP |
| Aircraft | B738/M-SDE2E3FGHIRWXY/LB1 |
Departure
| Time | 2026-05-03 20:45 |
|---|---|
| Airport | Manchester Airport (EGCC) |
Arrival
| Time | 2026-05-03 21:22 |
|---|---|
| Airport | Edinburgh Airport (EGPH) |
| Time | Latitude | Longitude | Altitude | Speed | Heading |
|---|---|---|---|---|---|
| 2026-05-03 20:15 | 53.36069 | -2.26851 | 234 ft | 0 kts | 313° |
| 2026-05-03 20:25 | 53.36065 | -2.26844 | 234 ft | 1 kts | 313° |
| 2026-05-03 20:25 | 53.36060 | -2.26835 | 237 ft | 1 kts | 313° |
| 2026-05-03 20:25 | 53.36055 | -2.26826 | 237 ft | 1 kts | 314° |
| 2026-05-03 20:26 | 53.36050 | -2.26817 | 235 ft | 1 kts | 314° |
| 2026-05-03 20:26 | 53.36045 | -2.26808 | 235 ft | 1 kts | 314° |
| 2026-05-03 20:26 | 53.36039 | -2.26800 | 235 ft | 1 kts | 316° |
| 2026-05-03 20:26 | 53.36034 | -2.26790 | 234 ft | 1 kts | 302° |
| 2026-05-03 20:27 | 53.36031 | -2.26780 | 222 ft | 1 kts | 291° |
| 2026-05-03 20:27 | 53.36028 | -2.26768 | 224 ft | 1 kts | 278° |
| 2026-05-03 20:27 | 53.36028 | -2.26755 | 218 ft | 1 kts | 261° |
| 2026-05-03 20:27 | 53.36029 | -2.26743 | 242 ft | 1 kts | 240° |
| 2026-05-03 20:28 | 53.36032 | -2.26737 | 236 ft | 0 kts | 232° |
| 2026-05-03 20:30 | 53.36029 | -2.26742 | 241 ft | 3 kts | 232° |
| 2026-05-03 20:30 | 53.35992 | -2.26821 | 233 ft | 11 kts | 228° |
| 2026-05-03 20:31 | 53.35937 | -2.26837 | 234 ft | 8 kts | 160° |
| 2026-05-03 20:31 | 53.35888 | -2.26862 | 238 ft | 8 kts | 232° |
| 2026-05-03 20:31 | 53.35856 | -2.26933 | 237 ft | 8 kts | 234° |
| 2026-05-03 20:31 | 53.35834 | -2.27010 | 236 ft | 7 kts | 246° |
| 2026-05-03 20:32 | 53.35802 | -2.27081 | 237 ft | 9 kts | 238° |
| 2026-05-03 20:32 | 53.35814 | -2.27178 | 239 ft | 9 kts | 311° |
| 2026-05-03 20:32 | 53.35816 | -2.27265 | 240 ft | 7 kts | 235° |
| 2026-05-03 20:32 | 53.35784 | -2.27332 | 242 ft | 7 kts | 231° |
| 2026-05-03 20:33 | 53.35750 | -2.27401 | 243 ft | 9 kts | 231° |
| 2026-05-03 20:33 | 53.35704 | -2.27497 | 244 ft | 11 kts | 231° |
| 2026-05-03 20:33 | 53.35654 | -2.27600 | 246 ft | 10 kts | 230° |
| 2026-05-03 20:33 | 53.35608 | -2.27677 | 247 ft | 9 kts | 224° |
| 2026-05-03 20:34 | 53.35563 | -2.27750 | 248 ft | 9 kts | 224° |
| 2026-05-03 20:34 | 53.35556 | -2.27762 | 248 ft | 0 kts | 224° |
| 2026-05-03 20:34 | 53.35555 | -2.27762 | 248 ft | 0 kts | 224° |
| 2026-05-03 20:34 | 53.35541 | -2.27786 | 248 ft | 4 kts | 224° |
| 2026-05-03 20:35 | 53.35524 | -2.27814 | 249 ft | 2 kts | 224° |
| 2026-05-03 20:35 | 53.35518 | -2.27823 | 249 ft | 3 kts | 224° |
| 2026-05-03 20:35 | 53.35497 | -2.27858 | 249 ft | 11 kts | 223° |
| 2026-05-03 20:37 | 53.35448 | -2.27934 | 250 ft | 11 kts | 224° |
| 2026-05-03 20:37 | 53.35391 | -2.28027 | 251 ft | 11 kts | 224° |
| 2026-05-03 20:37 | 53.35333 | -2.28121 | 252 ft | 12 kts | 224° |
| 2026-05-03 20:37 | 53.35273 | -2.28221 | 253 ft | 12 kts | 226° |
| 2026-05-03 20:38 | 53.35217 | -2.28331 | 255 ft | 13 kts | 230° |
| 2026-05-03 20:38 | 53.35162 | -2.28447 | 256 ft | 12 kts | 231° |
| 2026-05-03 20:38 | 53.35112 | -2.28551 | 257 ft | 11 kts | 231° |
| 2026-05-03 20:38 | 53.35062 | -2.28653 | 258 ft | 12 kts | 231° |
| 2026-05-03 20:39 | 53.35009 | -2.28755 | 259 ft | 11 kts | 225° |
| 2026-05-03 20:39 | 53.34953 | -2.28849 | 261 ft | 12 kts | 225° |
| 2026-05-03 20:39 | 53.34895 | -2.28949 | 262 ft | 12 kts | 227° |
| 2026-05-03 20:39 | 53.34843 | -2.29046 | 263 ft | 10 kts | 229° |
| 2026-05-03 20:40 | 53.34796 | -2.29137 | 264 ft | 10 kts | 229° |
| 2026-05-03 20:40 | 53.34749 | -2.29231 | 265 ft | 10 kts | 231° |
| 2026-05-03 20:40 | 53.34706 | -2.29311 | 266 ft | 6 kts | 212° |
| 2026-05-03 20:40 | 53.34687 | -2.29325 | 266 ft | 0 kts | 200° |
| 2026-05-03 20:43 | 53.34686 | -2.29326 | 266 ft | 0 kts | 200° |
| 2026-05-03 20:43 | 53.34676 | -2.29331 | 267 ft | 3 kts | 198° |
| 2026-05-03 20:43 | 53.34668 | -2.29336 | 267 ft | 2 kts | 197° |
| 2026-05-03 20:43 | 53.34645 | -2.29345 | 267 ft | 3 kts | 189° |
| 2026-05-03 20:44 | 53.34615 | -2.29344 | 268 ft | 6 kts | 175° |
| 2026-05-03 20:44 | 53.34559 | -2.29307 | 270 ft | 11 kts | 140° |
| 2026-05-03 20:44 | 53.34535 | -2.29229 | 269 ft | 7 kts | 78° |
| 2026-05-03 20:44 | 53.34577 | -2.29137 | 267 ft | 26 kts | 51° |
| 2026-05-03 20:45 | 53.34855 | -2.28567 | 262 ft | 98 kts | 51° |
| 2026-05-03 20:45 | 53.35407 | -2.27418 | 279 ft | 153 kts | 51° |
| 2026-05-03 20:45 | 53.36067 | -2.25981 | 978 ft | 154 kts | 52° |
| 2026-05-03 20:45 | 53.36686 | -2.24623 | 2002 ft | 135 kts | 51° |
| 2026-05-03 20:46 | 53.37252 | -2.23437 | 2727 ft | 130 kts | 51° |
| 2026-05-03 20:46 | 53.37874 | -2.22128 | 3007 ft | 156 kts | 52° |
| 2026-05-03 20:46 | 53.38599 | -2.20589 | 3300 ft | 183 kts | 52° |
| 2026-05-03 20:46 | 53.39442 | -2.18789 | 3512 ft | 206 kts | 52° |
| 2026-05-03 20:47 | 53.40363 | -2.16813 | 3719 ft | 224 kts | 52° |
| 2026-05-03 20:47 | 53.41333 | -2.14723 | 4142 ft | 233 kts | 52° |
| 2026-05-03 20:47 | 53.42377 | -2.12470 | 4418 ft | 251 kts | 52° |
| 2026-05-03 20:47 | 53.43494 | -2.10186 | 4927 ft | 256 kts | 43° |
| 2026-05-03 20:48 | 53.45056 | -2.08853 | 4988 ft | 256 kts | 7° |
| 2026-05-03 20:48 | 53.46859 | -2.09071 | 5014 ft | 260 kts | 354° |
| 2026-05-03 20:48 | 53.48664 | -2.09388 | 5022 ft | 262 kts | 357° |
| 2026-05-03 20:48 | 53.50481 | -2.09561 | 5030 ft | 263 kts | 359° |
| 2026-05-03 20:49 | 53.52327 | -2.09651 | 5484 ft | 267 kts | 359° |
| 2026-05-03 20:49 | 53.54185 | -2.09724 | 6267 ft | 270 kts | 359° |
| 2026-05-03 20:49 | 53.56077 | -2.09787 | 6973 ft | 274 kts | 359° |
| 2026-05-03 20:49 | 53.57981 | -2.09846 | 7692 ft | 277 kts | 359° |
| 2026-05-03 20:50 | 53.59928 | -2.09904 | 8418 ft | 281 kts | 358° |
| 2026-05-03 20:50 | 53.61900 | -2.09962 | 9140 ft | 285 kts | 358° |
| 2026-05-03 20:50 | 53.63888 | -2.10016 | 9860 ft | 289 kts | 358° |
| 2026-05-03 20:50 | 53.65934 | -2.10071 | 10347 ft | 301 kts | 358° |
| 2026-05-03 20:51 | 53.68111 | -2.10131 | 10505 ft | 323 kts | 358° |
| 2026-05-03 20:51 | 53.70417 | -2.10195 | 10685 ft | 344 kts | 358° |
| 2026-05-03 20:51 | 53.72860 | -2.10261 | 11114 ft | 354 kts | 359° |
| 2026-05-03 20:51 | 53.75285 | -2.10741 | 11801 ft | 356 kts | 341° |
| 2026-05-03 20:52 | 53.77598 | -2.12336 | 12513 ft | 358 kts | 336° |
| 2026-05-03 20:52 | 53.79888 | -2.14019 | 13188 ft | 362 kts | 336° |
| 2026-05-03 20:52 | 53.82228 | -2.15681 | 13871 ft | 366 kts | 337° |
| 2026-05-03 20:52 | 53.84572 | -2.17311 | 14530 ft | 369 kts | 337° |
| 2026-05-03 20:53 | 53.86970 | -2.18965 | 15211 ft | 372 kts | 337° |
| 2026-05-03 20:53 | 53.89361 | -2.20602 | 15875 ft | 375 kts | 337° |
| 2026-05-03 20:53 | 53.91812 | -2.22277 | 16530 ft | 379 kts | 337° |
| 2026-05-03 20:53 | 53.94260 | -2.23953 | 17197 ft | 382 kts | 337° |
| 2026-05-03 20:54 | 53.96721 | -2.25641 | 17849 ft | 386 kts | 337° |
| 2026-05-03 20:54 | 54.01766 | -2.29112 | 18971 ft | 394 kts | 337° |
| 2026-05-03 20:54 | 54.04312 | -2.30869 | 19581 ft | 395 kts | 337° |
| 2026-05-03 20:55 | 54.06870 | -2.32640 | 20151 ft | 398 kts | 337° |
| 2026-05-03 20:55 | 54.09439 | -2.34421 | 20649 ft | 402 kts | 337° |
| 2026-05-03 20:55 | 54.12026 | -2.36215 | 21164 ft | 405 kts | 337° |
| 2026-05-03 20:55 | 54.14658 | -2.38042 | 21733 ft | 407 kts | 336° |
| 2026-05-03 20:56 | 54.17262 | -2.39851 | 21986 ft | 413 kts | 337° |
| 2026-05-03 20:56 | 54.19955 | -2.41717 | 21980 ft | 416 kts | 337° |
| 2026-05-03 20:56 | 54.22612 | -2.43558 | 21987 ft | 413 kts | 337° |
| 2026-05-03 20:56 | 54.25260 | -2.45395 | 21984 ft | 410 kts | 337° |
| 2026-05-03 20:57 | 54.27906 | -2.47233 | 21997 ft | 411 kts | 337° |
| 2026-05-03 20:57 | 54.30555 | -2.49078 | 21998 ft | 413 kts | 337° |
| 2026-05-03 20:57 | 54.33218 | -2.50934 | 22001 ft | 414 kts | 337° |
| 2026-05-03 20:57 | 54.35912 | -2.52815 | 21994 ft | 414 kts | 337° |
| 2026-05-03 20:58 | 54.38579 | -2.54681 | 21993 ft | 414 kts | 337° |
| 2026-05-03 20:58 | 54.41225 | -2.56534 | 21982 ft | 414 kts | 337° |
| 2026-05-03 20:58 | 54.43879 | -2.58395 | 21988 ft | 413 kts | 336° |
| 2026-05-03 20:58 | 54.46562 | -2.60279 | 21990 ft | 412 kts | 336° |
| 2026-05-03 20:59 | 54.49198 | -2.62132 | 22001 ft | 411 kts | 336° |
| 2026-05-03 20:59 | 54.51823 | -2.63984 | 21988 ft | 410 kts | 337° |
| 2026-05-03 20:59 | 54.54453 | -2.65847 | 21992 ft | 409 kts | 336° |
| 2026-05-03 20:59 | 54.57076 | -2.67710 | 21998 ft | 408 kts | 336° |
| 2026-05-03 21:00 | 54.59713 | -2.69588 | 22000 ft | 408 kts | 337° |
| 2026-05-03 21:00 | 54.61440 | -2.70818 | 21994 ft | 407 kts | 337° |
| 2026-05-03 21:00 | 54.64929 | -2.73304 | 22001 ft | 407 kts | 337° |
| 2026-05-03 21:00 | 54.67567 | -2.75186 | 22002 ft | 406 kts | 337° |
| 2026-05-03 21:01 | 54.70148 | -2.77031 | 21999 ft | 406 kts | 337° |
| 2026-05-03 21:01 | 54.72787 | -2.78916 | 21996 ft | 407 kts | 336° |
| 2026-05-03 21:01 | 54.75402 | -2.80783 | 21998 ft | 407 kts | 336° |
| 2026-05-03 21:01 | 54.77998 | -2.82639 | 22005 ft | 407 kts | 336° |
| 2026-05-03 21:02 | 54.80610 | -2.84508 | 21997 ft | 407 kts | 336° |
| 2026-05-03 21:02 | 54.83250 | -2.86400 | 21998 ft | 408 kts | 336° |
| 2026-05-03 21:02 | 54.85844 | -2.88262 | 21997 ft | 405 kts | 336° |
| 2026-05-03 21:02 | 54.88450 | -2.90136 | 21990 ft | 398 kts | 336° |
| 2026-05-03 21:03 | 54.90973 | -2.91959 | 21991 ft | 394 kts | 336° |
| 2026-05-03 21:03 | 54.93484 | -2.93780 | 21999 ft | 395 kts | 336° |
| 2026-05-03 21:03 | 54.96043 | -2.95639 | 22011 ft | 397 kts | 336° |
| 2026-05-03 21:03 | 54.98573 | -2.97479 | 21999 ft | 392 kts | 336° |
| 2026-05-03 21:04 | 55.01047 | -2.99278 | 21983 ft | 377 kts | 336° |
| 2026-05-03 21:04 | 55.03439 | -3.01021 | 21991 ft | 368 kts | 336° |
| 2026-05-03 21:04 | 55.05754 | -3.02710 | 21989 ft | 358 kts | 336° |
| 2026-05-03 21:04 | 55.08025 | -3.04369 | 21984 ft | 346 kts | 336° |
| 2026-05-03 21:05 | 55.10215 | -3.05970 | 21982 ft | 333 kts | 336° |
| 2026-05-03 21:05 | 55.12305 | -3.07501 | 21812 ft | 325 kts | 336° |
| 2026-05-03 21:05 | 55.14437 | -3.09065 | 20867 ft | 341 kts | 336° |
| 2026-05-03 21:05 | 55.16680 | -3.10713 | 19764 ft | 362 kts | 336° |
| 2026-05-03 21:06 | 55.19016 | -3.12426 | 19167 ft | 366 kts | 336° |
| 2026-05-03 21:06 | 55.21367 | -3.14150 | 18816 ft | 362 kts | 336° |
| 2026-05-03 21:06 | 55.23698 | -3.15861 | 17968 ft | 371 kts | 336° |
| 2026-05-03 21:06 | 55.26110 | -3.17636 | 17274 ft | 374 kts | 336° |
| 2026-05-03 21:07 | 55.28503 | -3.19384 | 16656 ft | 375 kts | 339° |
| 2026-05-03 21:07 | 55.31029 | -3.20312 | 16049 ft | 376 kts | 359° |
| 2026-05-03 21:07 | 55.33650 | -3.20021 | 15515 ft | 374 kts | 4° |
| 2026-05-03 21:07 | 55.36229 | -3.19586 | 14934 ft | 374 kts | 5° |
| 2026-05-03 21:08 | 55.38793 | -3.19134 | 14370 ft | 373 kts | 5° |
| 2026-05-03 21:08 | 55.41367 | -3.18689 | 13806 ft | 372 kts | 5° |
| 2026-05-03 21:08 | 55.43951 | -3.18256 | 13247 ft | 370 kts | 5° |
| 2026-05-03 21:08 | 55.46482 | -3.17845 | 13063 ft | 357 kts | 5° |
| 2026-05-03 21:09 | 55.48889 | -3.17460 | 13008 ft | 341 kts | 4° |
| 2026-05-03 21:09 | 55.51194 | -3.17094 | 12898 ft | 321 kts | 4° |
| 2026-05-03 21:09 | 55.53408 | -3.16745 | 12114 ft | 323 kts | 4° |
| 2026-05-03 21:09 | 55.55661 | -3.16392 | 11470 ft | 323 kts | 4° |
| 2026-05-03 21:10 | 55.57830 | -3.16050 | 11356 ft | 305 kts | 4° |
| 2026-05-03 21:10 | 55.59902 | -3.15722 | 11241 ft | 289 kts | 4° |
| 2026-05-03 21:10 | 55.61844 | -3.15416 | 11054 ft | 278 kts | 4° |
| 2026-05-03 21:10 | 55.63771 | -3.15113 | 10649 ft | 276 kts | 4° |
| 2026-05-03 21:11 | 55.65682 | -3.14814 | 10190 ft | 275 kts | 4° |
| 2026-05-03 21:11 | 55.67583 | -3.14511 | 9754 ft | 274 kts | 4° |
| 2026-05-03 21:11 | 55.69483 | -3.14209 | 9368 ft | 270 kts | 4° |
| 2026-05-03 21:11 | 55.71314 | -3.13918 | 9108 ft | 262 kts | 4° |
| 2026-05-03 21:12 | 55.73119 | -3.13882 | 8763 ft | 256 kts | 347° |
| 2026-05-03 21:12 | 55.74688 | -3.15195 | 8376 ft | 253 kts | 318° |
| 2026-05-03 21:12 | 55.75666 | -3.17706 | 8044 ft | 248 kts | 287° |
| 2026-05-03 21:12 | 55.75861 | -3.20638 | 8022 ft | 234 kts | 271° |
| 2026-05-03 21:13 | 55.75840 | -3.23473 | 8000 ft | 224 kts | 270° |
| 2026-05-03 21:13 | 55.75799 | -3.26236 | 7954 ft | 225 kts | 270° |
| 2026-05-03 21:13 | 55.75753 | -3.29034 | 7534 ft | 235 kts | 270° |
| 2026-05-03 21:13 | 55.75699 | -3.32030 | 6936 ft | 245 kts | 270° |
| 2026-05-03 21:14 | 55.75636 | -3.35059 | 6471 ft | 249 kts | 270° |
| 2026-05-03 21:14 | 55.75566 | -3.38110 | 6101 ft | 247 kts | 269° |
| 2026-05-03 21:14 | 55.75497 | -3.41177 | 5761 ft | 247 kts | 269° |
| 2026-05-03 21:14 | 55.75429 | -3.44240 | 5424 ft | 247 kts | 269° |
| 2026-05-03 21:15 | 55.75362 | -3.47262 | 5095 ft | 246 kts | 269° |
| 2026-05-03 21:15 | 55.75311 | -3.50298 | 4754 ft | 244 kts | 275° |
| 2026-05-03 21:15 | 55.75768 | -3.53139 | 4357 ft | 241 kts | 300° |
| 2026-05-03 21:15 | 55.76643 | -3.55700 | 4040 ft | 240 kts | 304° |
| 2026-05-03 21:16 | 55.77531 | -3.58137 | 4009 ft | 234 kts | 304° |
| 2026-05-03 21:16 | 55.78419 | -3.60555 | 3933 ft | 236 kts | 304° |
| 2026-05-03 21:16 | 55.79325 | -3.63017 | 3658 ft | 237 kts | 304° |
| 2026-05-03 21:16 | 55.80214 | -3.65426 | 3439 ft | 230 kts | 304° |
| 2026-05-03 21:17 | 55.81250 | -3.67466 | 3169 ft | 221 kts | 328° |
| 2026-05-03 21:17 | 55.82199 | -3.68103 | 3057 ft | 212 kts | 353° |
| 2026-05-03 21:17 | 55.83970 | -3.67327 | 3002 ft | 187 kts | 27° |
| 2026-05-03 21:17 | 55.85004 | -3.66195 | 2978 ft | 164 kts | 40° |
| 2026-05-03 21:18 | 55.85467 | -3.65180 | 3011 ft | 155 kts | 55° |
| 2026-05-03 21:18 | 55.86271 | -3.63040 | 3000 ft | 157 kts | 55° |
| 2026-05-03 21:18 | 55.86846 | -3.61409 | 2991 ft | 153 kts | 56° |
| 2026-05-03 21:18 | 55.87397 | -3.59795 | 2897 ft | 156 kts | 57° |
| 2026-05-03 21:19 | 55.87965 | -3.58112 | 2683 ft | 157 kts | 57° |
| 2026-05-03 21:19 | 55.88518 | -3.56468 | 2481 ft | 154 kts | 58° |
| 2026-05-03 21:19 | 55.89069 | -3.54830 | 2272 ft | 152 kts | 58° |
| 2026-05-03 21:19 | 55.89611 | -3.53217 | 2066 ft | 152 kts | 58° |
| 2026-05-03 21:20 | 55.90154 | -3.51604 | 1860 ft | 153 kts | 58° |
| 2026-05-03 21:20 | 55.90702 | -3.49977 | 1647 ft | 153 kts | 59° |
| 2026-05-03 21:20 | 55.91247 | -3.48358 | 1436 ft | 155 kts | 59° |
| 2026-05-03 21:20 | 55.91808 | -3.46696 | 1209 ft | 156 kts | 59° |
| 2026-05-03 21:21 | 55.92367 | -3.45035 | 1025 ft | 154 kts | 59° |
| 2026-05-03 21:21 | 55.92919 | -3.43381 | 791 ft | 154 kts | 59° |
| 2026-05-03 21:21 | 55.93455 | -3.41757 | 584 ft | 153 kts | 59° |
| 2026-05-03 21:21 | 55.94003 | -3.40135 | 352 ft | 154 kts | 57° |
| 2026-05-03 21:22 | 55.94568 | -3.38515 | 148 ft | 153 kts | 58° |
| 2026-05-03 21:22 | 55.95075 | -3.37029 | 108 ft | 116 kts | 58° |
| 2026-05-03 21:22 | 55.95377 | -3.36134 | 98 ft | 42 kts | 59° |
| 2026-05-03 21:22 | 55.95505 | -3.35755 | 102 ft | 29 kts | 59° |
| 2026-05-03 21:23 | 55.95565 | -3.35545 | 100 ft | 7 kts | 90° |
| 2026-05-03 21:23 | 55.95537 | -3.35489 | 100 ft | 6 kts | 147° |
| 2026-05-03 21:23 | 55.95504 | -3.35451 | 101 ft | 4 kts | 145° |
| 2026-05-03 21:23 | 55.95488 | -3.35431 | 100 ft | 1 kts | 145° |
| 2026-05-03 21:24 | 55.95487 | -3.35429 | 100 ft | 1 kts | 145° |
| 2026-05-03 21:24 | 55.95465 | -3.35406 | 102 ft | 5 kts | 155° |
| 2026-05-03 21:24 | 55.95428 | -3.35408 | 102 ft | 6 kts | 207° |
| 2026-05-03 21:24 | 55.95406 | -3.35475 | 104 ft | 8 kts | 240° |
| 2026-05-03 21:25 | 55.95365 | -3.35599 | 103 ft | 16 kts | 239° |
| 2026-05-03 21:25 | 55.95299 | -3.35793 | 101 ft | 20 kts | 239° |
| 2026-05-03 21:25 | 55.95231 | -3.35995 | 99 ft | 15 kts | 239° |
| 2026-05-03 21:25 | 55.95185 | -3.36131 | 102 ft | 8 kts | 238° |
| 2026-05-03 21:26 | 55.95146 | -3.36174 | 103 ft | 6 kts | 182° |
| 2026-05-03 21:26 | 55.95125 | -3.36147 | 103 ft | 2 kts | 130° |
| 2026-05-03 21:26 | 55.95118 | -3.36128 | 103 ft | 3 kts | 115° |
| 2026-05-03 21:26 | 55.95102 | -3.36044 | 104 ft | 10 kts | 109° |
| 2026-05-03 21:27 | 55.95080 | -3.35949 | 104 ft | 7 kts | 117° |
| 2026-05-03 21:27 | 55.95047 | -3.35918 | 105 ft | 2 kts | 210° |
| 2026-05-03 21:27 | 55.95038 | -3.35946 | 104 ft | 3 kts | 242° |
| 2026-05-03 21:27 | 55.95028 | -3.35978 | 106 ft | 3 kts | 243° |
| 2026-05-03 21:28 | 55.95023 | -3.35998 | 106 ft | 1 kts | 243° |
| 2026-05-03 21:28 | 55.95021 | -3.36004 | 106 ft | 0 kts | 243° |